Easton, Minnesota
Current Conditions -  °F | °C
As of 4:34 AM on Sunday 21 Dec 2014 (Local Time) from KACQ Reporting Station
Haze Haze  
Wind Chill: 24°   Ceiling: 400
Heat Index: 32°   Visibility: 1.5mi
Dew Point: 32°   Wind: 9mph
Humidity: 100%   Direction: 140°SE
Pressure: 29.95"   Gusts: NA
Location:  43.77°N, 93.9°W
Report Text: KACQ 211034Z AUTO 14008KT 1 1/2SM BR OVC004 00/00 A2995 RMK AO2
Loading
Personal Weather Stations






























Interactive Weather Map New forecast layout! Learn more

10-Day Weather Forecast

Advertisements
Track Severe Weather on mobile